Time;durP1;ratioP1;P1;durP2;ratioP2;P2;SDS_P1;SDS_P2;PMS_P1;PMS_P2;Temp;Humidity;BMP_temperature;BMP_pressure;BME280_temperature;BME280_humidity;BME280_pressure;Samples;Min_cycle;Max_cycle;Signal;HPM_P1;HPM_P2
2022/05/03 00:02:12;;;;;;;8.85;6.30;;;7.50;99.90;;;;;;5024749;28;21178;-50
2022/05/03 00:04:38;;;;;;;8.80;5.68;;;7.50;99.90;;;;;;5019958;28;20065;-54
2022/05/03 00:07:20;;;;;;;9.65;6.30;;;7.50;99.90;;;;;;5019088;28;20050;-51
2022/05/03 00:10:02;;;;;;;11.48;6.57;;;7.60;99.90;;;;;;5020059;28;20042;-51
2022/05/03 00:12:45;;;;;;;8.95;6.70;;;7.40;99.90;;;;;;5020313;28;20050;-53
2022/05/03 00:15:16;;;;;;;10.05;6.88;;;7.50;99.90;;;;;;5026522;28;20077;-49
2022/05/03 00:17:43;;;;;;;9.00;6.53;;;7.50;99.90;;;;;;5039876;28;20466;-52
2022/05/03 00:20:09;;;;;;;9.18;6.25;;;7.50;99.90;;;;;;5020636;28;20045;-52
2022/05/03 00:22:36;;;;;;;13.45;7.00;;;7.40;99.90;;;;;;5039430;28;20069;-53
2022/05/03 00:25:02;;;;;;;10.18;7.30;;;7.40;99.90;;;;;;5039511;28;20075;-52
2022/05/03 00:27:28;;;;;;;10.10;6.88;;;7.30;99.90;;;;;;5038579;28;20100;-52
2022/05/03 00:29:56;;;;;;;13.52;7.93;;;7.40;99.90;;;;;;5040093;28;20041;-53
2022/05/03 00:32:23;;;;;;;10.63;7.32;;;7.30;99.90;;;;;;5020437;28;20502;-52
2022/05/03 00:34:49;;;;;;;9.77;7.28;;;7.30;99.90;;;;;;5039544;28;20037;-54
2022/05/03 00:37:16;;;;;;;10.05;7.45;;;7.30;99.90;;;;;;5038510;28;20121;-52
2022/05/03 00:39:42;;;;;;;10.55;7.78;;;7.30;99.90;;;;;;5039249;28;20056;-53
2022/05/03 00:42:18;;;;;;;10.95;7.90;;;7.30;99.90;;;;;;5039000;28;20060;-52
2022/05/03 00:44:58;;;;;;;10.43;7.55;;;7.30;99.90;;;;;;5037290;28;20042;-50
2022/05/03 00:47:50;;;;;;;10.85;8.52;;;7.30;99.90;;;;;;5039611;28;20038;-54
2022/05/03 00:50:33;;;;;;;11.02;7.78;;;7.30;99.90;;;;;;5038173;28;20076;-50
2022/05/03 00:53:18;;;;;;;11.07;7.55;;;7.30;99.90;;;;;;5020626;28;20501;-51
2022/05/03 00:56:05;;;;;;;11.00;8.75;;;7.20;99.90;;;;;;5021519;28;20710;-50
2022/05/03 00:58:37;;;;;;;10.98;8.82;;;7.20;99.90;;;;;;5037911;28;20092;-52
2022/05/03 01:01:27;;;;;;;12.23;7.93;;;7.20;99.90;;;;;;5029977;28;20060;-51
2022/05/03 01:04:07;;;;;;;12.43;8.13;;;7.10;99.90;;;;;;5019669;28;20104;-53
2022/05/03 01:06:35;;;;;;;10.32;8.25;;;7.10;99.90;;;;;;5017930;28;20073;-49
2022/05/03 01:09:05;;;;;;;12.82;8.85;;;7.10;99.90;;;;;;5019677;28;20121;-50
2022/05/03 01:11:46;;;;;;;13.45;8.65;;;7.10;99.90;;;;;;5018360;28;20097;-52
2022/05/03 01:14:48;;;;;;;12.48;8.10;;;7.20;99.90;;;;;;5019075;28;20042;-53
2022/05/03 01:17:32;;;;;;;11.50;9.20;;;7.20;99.90;;;;;;5000143;28;20050;-52
2022/05/03 01:20:06;;;;;;;16.08;9.23;;;7.20;99.90;;;;;;4998324;28;20065;-51
2022/05/03 01:22:49;;;;;;;13.35;9.10;;;7.20;99.90;;;;;;4999456;28;20057;-53
2022/05/03 01:25:35;;;;;;;12.35;9.95;;;7.20;99.90;;;;;;4999673;28;20057;-52
2022/05/03 01:28:26;;;;;;;15.02;9.98;;;7.20;99.90;;;;;;4998295;28;20042;-52
2022/05/03 01:30:56;;;;;;;12.15;8.63;;;7.10;99.90;;;;;;4999480;28;20057;-51
2022/05/03 01:33:31;;;;;;;11.13;8.48;;;7.10;99.90;;;;;;4981236;28;20049;-53
2022/05/03 01:36:00;;;;;;;12.52;9.27;;;7.00;99.90;;;;;;4998530;28;20049;-52
2022/05/03 01:39:05;;;;;;;14.45;9.63;;;7.00;99.90;;;;;;4982354;28;20081;-50
2022/05/03 01:41:57;;;;;;;13.18;9.95;;;7.00;99.90;;;;;;4997852;28;20058;-53
2022/05/03 01:44:38;;;;;;;14.75;10.00;;;7.00;99.90;;;;;;4998886;28;20564;-53
2022/05/03 01:47:18;;;;;;;13.95;10.55;;;7.00;99.90;;;;;;5000153;28;20061;-53
2022/05/03 01:52:58;;;;;;;13.38;10.73;;;6.90;99.90;;;;;;4981534;28;20047;-52
2022/05/03 01:55:50;;;;;;;12.75;9.68;;;7.00;99.90;;;;;;4999714;28;20078;-52
2022/05/03 01:58:35;;;;;;;13.45;10.45;;;6.90;99.90;;;;;;4982118;28;20058;-50
2022/05/03 02:01:43;;;;;;;14.48;10.88;;;6.80;99.90;;;;;;5011707;28;20044;-51
2022/05/03 02:04:21;;;;;;;14.02;11.65;;;6.90;99.90;;;;;;5023041;28;20056;-53
2022/05/03 02:07:00;;;;;;;14.20;11.35;;;6.90;99.90;;;;;;5021061;28;20046;-49
2022/05/03 02:09:35;;;;;;;14.88;11.32;;;7.00;99.90;;;;;;5022454;28;20042;-49
2022/05/03 02:12:15;;;;;;;13.75;10.82;;;7.00;99.90;;;;;;5004445;28;20049;-51
2022/05/03 02:14:53;;;;;;;14.70;11.00;;;7.00;99.90;;;;;;5021170;28;20133;-52
2022/05/03 02:17:52;;;;;;;17.10;10.82;;;7.10;99.90;;;;;;5022589;28;20470;-52
2022/05/03 02:20:17;;;;;;;13.98;10.85;;;7.10;99.90;;;;;;5003462;28;20054;-52
2022/05/03 02:23:21;;;;;;;16.25;11.63;;;7.20;99.90;;;;;;5021719;28;20045;-52
2022/05/03 02:26:23;;;;;;;16.40;11.05;;;7.20;99.90;;;;;;5022459;28;20053;-53
2022/05/03 02:29:11;;;;;;;15.05;10.35;;;7.30;99.90;;;;;;5020981;28;20104;-52
2022/05/03 02:32:04;;;;;;;14.43;11.00;;;7.30;99.90;;;;;;5021034;28;20042;-53
2022/05/03 02:34:42;;;;;;;;;;;7.30;99.90;;;;;;5022660;28;20049;-52
2022/05/03 02:37:23;;;;;;;16.27;11.77;;;7.30;99.90;;;;;;5020520;28;19921;-53
2022/05/03 02:39:59;;;;;;;16.13;11.52;;;7.30;99.90;;;;;;5003736;28;20050;-51
2022/05/03 02:42:26;;;;;;;17.27;12.70;;;7.40;99.90;;;;;;5021923;28;20052;-51
2022/05/03 02:44:56;;;;;;;17.20;13.07;;;7.30;99.90;;;;;;5020493;28;20046;-51
2022/05/03 02:47:41;;;;;;;16.55;12.30;;;7.40;99.90;;;;;;5021905;28;20058;-49
2022/05/03 02:50:13;;;;;;;15.75;11.50;;;7.50;99.90;;;;;;5020428;28;20137;-51
2022/05/03 02:52:51;;;;;;;17.02;12.98;;;7.50;99.90;;;;;;5021053;28;20513;-52
2022/05/03 02:55:50;;;;;;;16.98;12.35;;;7.50;99.90;;;;;;5021654;28;20068;-50
2022/05/03 02:58:33;;;;;;;17.33;12.98;;;7.50;99.90;;;;;;4968072;28;20402;-49
2022/05/03 03:04:02;;;;;;;16.17;12.98;;;7.60;99.90;;;;;;5021835;28;20042;-52
2022/05/03 03:06:37;;;;;;;17.33;12.95;;;7.60;99.90;;;;;;5019714;28;20112;-49
2022/05/03 03:09:03;;;;;;;17.13;13.35;;;7.60;99.90;;;;;;5020698;28;20085;-51
2022/05/03 03:11:33;;;;;;;20.63;15.65;;;7.60;99.90;;;;;;5019946;28;20053;-52
2022/05/03 03:14:19;;;;;;;21.17;15.32;;;7.60;99.90;;;;;;5021119;28;20046;-52
2022/05/03 03:16:54;;;;;;;19.10;14.85;;;7.60;99.90;;;;;;5001714;28;20034;-53
2022/05/03 03:19:46;;;;;;;21.00;15.13;;;7.60;99.90;;;;;;4999756;28;20126;-52
2022/05/03 03:22:13;;;;;;;21.48;14.82;;;7.60;99.90;;;;;;5001195;28;20050;-53
2022/05/03 03:24:40;;;;;;;21.85;15.38;;;7.70;99.90;;;;;;5000608;28;20545;-53
2022/05/03 03:27:08;;;;;;;19.30;14.52;;;7.70;99.90;;;;;;5000875;28;20484;-51
2022/05/03 03:29:36;;;;;;;21.55;14.90;;;7.80;99.90;;;;;;5001600;28;20054;-52
2022/05/03 03:32:05;;;;;;;23.73;16.70;;;7.60;99.90;;;;;;4999791;28;20070;-52
2022/05/03 03:34:32;;;;;;;21.98;15.93;;;7.80;99.90;;;;;;5001444;28;20026;-53
2022/05/03 03:37:04;;;;;;;25.58;16.70;;;7.70;99.90;;;;;;4982349;28;20506;-52
2022/05/03 03:39:31;;;;;;;20.67;15.70;;;7.80;99.90;;;;;;4983569;28;20073;-50
2022/05/03 03:42:05;;;;;;;21.13;15.18;;;7.70;99.90;;;;;;5000729;28;20058;-52
2022/05/03 03:44:31;;;;;;;22.42;15.63;;;7.70;99.90;;;;;;4982488;28;20062;-49
2022/05/03 03:47:02;;;;;;;22.60;15.68;;;7.70;99.90;;;;;;5001625;28;20104;-51
2022/05/03 03:49:29;;;;;;;19.50;14.60;;;7.70;99.90;;;;;;4999397;28;20050;-52
2022/05/03 03:51:57;;;;;;;21.38;16.20;;;7.80;99.90;;;;;;5000917;28;20104;-52
2022/05/03 03:54:24;;;;;;;20.45;15.05;;;7.70;99.90;;;;;;4999916;28;20149;-51
2022/05/03 03:56:51;;;;;;;26.75;16.98;;;7.80;99.90;;;;;;5000369;28;20050;-50
2022/05/03 03:59:18;;;;;;;23.33;16.38;;;7.70;99.90;;;;;;5000732;28;20035;-50
2022/05/03 04:01:44;;;;;;;20.13;14.90;;;7.70;99.90;;;;;;5014174;28;20046;-53
2022/05/03 04:04:11;;;;;;;22.15;15.30;;;7.80;99.90;;;;;;5002936;28;20049;-52
2022/05/03 04:06:37;;;;;;;21.10;16.45;;;7.80;99.90;;;;;;5018778;28;20045;-53
2022/05/03 04:09:04;;;;;;;23.23;15.85;;;7.90;99.90;;;;;;5020570;28;20046;-53
2022/05/03 04:11:44;;;;;;;23.08;16.92;;;7.90;99.90;;;;;;5001334;28;20082;-52
2022/05/03 04:14:11;;;;;;;21.33;15.43;;;7.90;99.90;;;;;;5019706;28;20042;-51
2022/05/03 04:16:37;;;;;;;26.10;17.15;;;7.90;99.90;;;;;;5000660;28;20070;-51
2022/05/03 04:19:02;;;;;;;22.05;16.58;;;7.90;99.90;;;;;;4998984;28;20050;-52
2022/05/03 04:21:28;;;;;;;21.77;16.30;;;8.00;99.90;;;;;;5000561;28;20046;-50
2022/05/03 04:23:54;;;;;;;23.80;17.80;;;8.00;99.90;;;;;;4998550;28;20078;-53
2022/05/03 04:26:19;;;;;;;24.08;16.75;;;8.00;99.90;;;;;;5000173;28;20057;-50
2022/05/03 04:28:45;;;;;;;21.55;16.15;;;8.00;99.90;;;;;;4999314;28;20041;-52
2022/05/03 04:31:11;;;;;;;23.05;16.48;;;8.00;99.90;;;;;;4999945;28;20126;-52
2022/05/03 04:33:36;;;;;;;24.70;17.30;;;8.00;99.90;;;;;;5000058;28;20043;-52
2022/05/03 04:36:04;;;;;;;25.17;18.15;;;8.00;99.90;;;;;;4999111;28;20038;-52
2022/05/03 04:38:29;;;;;;;25.10;17.92;;;8.10;99.90;;;;;;5000668;28;20081;-52
2022/05/03 04:41:02;;;;;;;25.10;18.83;;;8.10;99.90;;;;;;4998702;28;20046;-50
2022/05/03 04:43:28;;;;;;;27.73;19.23;;;8.00;99.90;;;;;;5000207;28;20101;-52
2022/05/03 04:45:54;;;;;;;27.83;19.25;;;8.10;99.90;;;;;;4998898;28;20121;-52
2022/05/03 04:48:20;;;;;;;27.13;18.42;;;8.10;99.90;;;;;;5000008;28;20709;-53
2022/05/03 04:50:47;;;;;;;27.77;18.83;;;8.10;99.90;;;;;;4999796;28;20042;-54
2022/05/03 04:53:14;;;;;;;28.88;19.85;;;8.20;99.90;;;;;;4998410;28;20058;-53
2022/05/03 04:55:40;;;;;;;27.58;19.50;;;8.20;99.90;;;;;;5000200;28;20062;-53
2022/05/03 04:58:07;;;;;;;32.55;19.75;;;8.20;99.90;;;;;;4998541;28;20052;-52
2022/05/03 05:00:33;;;;;;;27.00;18.63;;;8.20;99.90;;;;;;5004915;28;20046;-52
2022/05/03 05:02:59;;;;;;;25.20;18.52;;;8.20;99.90;;;;;;5018466;28;20076;-51
2022/05/03 05:05:24;;;;;;;27.70;18.92;;;8.20;99.90;;;;;;5019386;28;20045;-52
2022/05/03 05:07:50;;;;;;;27.92;18.70;;;8.30;99.90;;;;;;5019110;28;20054;-51
2022/05/03 05:10:26;;;;;;;25.23;17.75;;;8.20;99.90;;;;;;5018324;28;20132;-53
2022/05/03 05:12:55;;;;;;;26.95;18.85;;;8.20;99.90;;;;;;5019917;28;20046;-51
2022/05/03 05:15:24;;;;;;;27.98;18.85;;;8.20;99.90;;;;;;5016677;28;20046;-54
2022/05/03 05:17:51;;;;;;;29.42;20.30;;;8.20;99.90;;;;;;5016273;28;20486;-54
2022/05/03 05:20:17;;;;;;;28.33;19.98;;;8.30;99.90;;;;;;5015056;28;20541;-54
2022/05/03 05:22:43;;;;;;;26.23;19.10;;;8.40;99.90;;;;;;5015569;28;20038;-52
2022/05/03 05:25:09;;;;;;;30.42;20.58;;;8.50;99.90;;;;;;5016281;28;20137;-50
2022/05/03 05:27:35;;;;;;;28.50;19.98;;;8.60;99.90;;;;;;4996806;28;20073;-53
2022/05/03 05:30:02;;;;;;;29.58;20.27;;;8.60;99.90;;;;;;5016619;28;20036;-49
2022/05/03 05:32:28;;;;;;;29.02;20.08;;;8.70;99.90;;;;;;5018282;28;20057;-52
2022/05/03 05:34:53;;;;;;;30.08;20.60;;;8.60;99.90;;;;;;5019824;28;20050;-53
2022/05/03 05:37:19;;;;;;;32.80;21.02;;;8.70;99.90;;;;;;5018584;28;20045;-52
2022/05/03 05:39:45;;;;;;;35.63;24.52;;;8.80;99.90;;;;;;5018931;28;20045;-53
2022/05/03 05:42:11;;;;;;;38.58;23.42;;;8.80;99.90;;;;;;5019706;28;20052;-52
2022/05/03 05:44:38;;;;;;;32.10;22.77;;;9.00;99.90;;;;;;5000338;28;20050;-50
2022/05/03 05:47:07;;;;;;;33.00;21.55;;;9.00;99.90;;;;;;5019935;28;20064;-55
2022/05/03 05:49:32;;;;;;;33.55;21.70;;;9.10;99.90;;;;;;5000299;28;20058;-53
2022/05/03 05:54:43;;;;;;;35.35;22.63;;;9.20;99.90;;;;;;5018543;28;20046;-52
2022/05/03 05:57:09;;;;;;;35.70;22.60;;;9.20;99.90;;;;;;5001125;28;20143;-54
2022/05/03 05:59:35;;;;;;;36.58;22.08;;;9.30;99.90;;;;;;5019484;28;20092;-52
2022/05/03 06:02:01;;;;;;;28.63;15.13;;;9.40;99.90;;;;;;5000408;28;20061;-54
2022/05/03 06:04:29;;;;;;;14.05;6.28;;;9.40;99.90;;;;;;4981761;28;20046;-52
2022/05/03 06:06:56;;;;;;;15.07;5.70;;;9.20;99.90;;;;;;4998018;28;20085;-52
2022/05/03 06:09:22;;;;;;;14.68;5.28;;;9.20;99.90;;;;;;4999811;28;20043;-53
2022/05/03 06:11:48;;;;;;;17.83;5.75;;;9.10;99.90;;;;;;4998858;28;20038;-52
2022/05/03 06:14:14;;;;;;;18.17;4.90;;;9.20;99.90;;;;;;4981665;28;20086;-53
2022/05/03 06:16:57;;;;;;;16.60;5.68;;;9.10;99.90;;;;;;5021185;28;20045;-52
2022/05/03 06:19:23;;;;;;;17.90;5.38;;;9.10;99.90;;;;;;5037471;28;20060;-53
2022/05/03 06:21:49;;;;;;;17.90;4.93;;;9.20;99.90;;;;;;5038648;28;20076;-52
2022/05/03 06:24:16;;;;;;;21.80;7.57;;;9.10;99.90;;;;;;5019659;28;20038;-52
2022/05/03 06:26:42;;;;;;;18.52;6.40;;;9.20;99.90;;;;;;5038587;28;20713;-50
2022/05/03 06:29:09;;;;;;;27.75;9.27;;;9.20;99.90;;;;;;5038011;28;20037;-52
2022/05/03 06:31:38;;;;;;;22.35;9.00;;;9.20;99.90;;;;;;5037665;28;20145;-56
2022/05/03 06:34:04;;;;;;;24.92;9.18;;;9.20;99.90;;;;;;5038879;28;20053;-54
2022/05/03 06:36:30;;;;;;;34.38;12.45;;;9.20;99.90;;;;;;5037073;28;20056;-53
2022/05/03 06:38:56;;;;;;;19.55;7.15;;;9.20;99.90;;;;;;5038497;28;20045;-55
2022/05/03 06:41:22;;;;;;;17.25;6.50;;;9.20;99.90;;;;;;5036876;28;20063;-53
2022/05/03 06:43:48;;;;;;;17.13;6.20;;;9.20;99.90;;;;;;5038578;28;20079;-54
2022/05/03 06:46:13;;;;;;;16.92;5.97;;;9.20;99.90;;;;;;5037891;28;20046;-54
2022/05/03 06:48:39;;;;;;;22.65;6.10;;;9.20;99.90;;;;;;5037554;28;20080;-54
2022/05/03 06:51:06;;;;;;;22.38;7.80;;;9.20;99.90;;;;;;5038590;28;20374;-52
2022/05/03 06:53:32;;;;;;;15.68;6.60;;;9.30;99.90;;;;;;5018490;28;20049;-51
2022/05/03 06:55:58;;;;;;;17.58;6.00;;;9.20;99.90;;;;;;5038400;28;20054;-53
2022/05/03 06:58:25;;;;;;;15.32;5.85;;;9.10;99.90;;;;;;5036879;28;20100;-53
2022/05/03 07:00:50;;;;;;;20.38;5.70;;;9.20;99.90;;;;;;5030513;28;20054;-54
2022/05/03 07:03:19;;;;;;;18.90;5.97;;;9.30;99.90;;;;;;5017425;28;20133;-53
2022/05/03 07:05:45;;;;;;;26.05;6.50;;;9.20;99.90;;;;;;5017394;28;20045;-53
2022/05/03 07:08:11;;;;;;;22.48;7.68;;;9.20;99.90;;;;;;5018865;28;20058;-51
2022/05/03 07:10:37;;;;;;;19.70;6.05;;;9.30;99.90;;;;;;5016733;28;20061;-54
2022/05/03 07:13:04;;;;;;;17.38;5.90;;;9.30;99.90;;;;;;5018213;28;20046;-53
2022/05/03 07:15:30;;;;;;;17.55;5.03;;;9.40;99.90;;;;;;5026983;28;20056;-52
2022/05/03 07:23:26;;;;;;;18.05;4.63;;;9.60;99.90;;;;;;5036024;28;20537;-52
2022/05/03 07:25:53;;;;;;;24.42;6.10;;;9.50;99.90;;;;;;5037767;28;20105;-49
2022/05/03 07:28:19;;;;;;;19.25;5.43;;;9.60;99.90;;;;;;5036033;28;20103;-54
2022/05/03 07:30:45;;;;;;;19.50;5.20;;;9.50;99.90;;;;;;5019496;28;20501;-55
2022/05/03 07:33:10;;;;;;;20.00;5.60;;;9.50;99.90;;;;;;5036618;28;20041;-51
2022/05/03 07:35:36;;;;;;;21.48;5.85;;;9.60;99.90;;;;;;5037820;28;20041;-53
2022/05/03 07:38:02;;;;;;;24.30;5.65;;;9.60;99.90;;;;;;5022598;28;20048;-51
2022/05/03 07:40:28;;;;;;;18.55;5.57;;;9.60;99.90;;;;;;5039297;28;20045;-52
2022/05/03 07:42:54;;;;;;;19.02;5.18;;;9.70;99.90;;;;;;5023001;28;20050;-50
2022/05/03 07:45:20;;;;;;;18.17;4.82;;;9.80;99.90;;;;;;5039171;28;20041;-52
2022/05/03 07:47:45;;;;;;;18.20;4.95;;;9.80;99.90;;;;;;5040249;28;20123;-51
2022/05/03 07:50:12;;;;;;;19.45;5.05;;;9.90;99.90;;;;;;5039284;28;20045;-52
2022/05/03 07:52:38;;;;;;;16.92;5.20;;;10.00;99.90;;;;;;5039773;28;20056;-53
2022/05/03 07:55:06;;;;;;;17.10;4.57;;;9.90;99.90;;;;;;5039888;28;20112;-52
2022/05/03 07:57:33;;;;;;;23.02;5.05;;;10.00;99.90;;;;;;5039040;28;20037;-53
2022/05/03 07:59:59;;;;;;;15.45;4.95;;;10.20;99.90;;;;;;5040120;28;20052;-50
2022/05/03 08:02:25;;;;;;;15.18;4.35;;;10.10;99.90;;;;;;5019014;28;20125;-51
2022/05/03 08:04:52;;;;;;;17.85;4.57;;;10.20;99.90;;;;;;5020217;28;20053;-53
2022/05/03 08:07:19;;;;;;;16.33;4.88;;;10.20;99.90;;;;;;5019114;28;20425;-52
2022/05/03 08:09:45;;;;;;;14.65;4.50;;;10.30;99.90;;;;;;5019817;28;20042;-51
2022/05/03 08:12:11;;;;;;;14.15;4.07;;;10.30;99.90;;;;;;5020094;28;20104;-53
2022/05/03 08:14:37;;;;;;;19.10;5.50;;;10.30;99.90;;;;;;5004295;28;20033;-53
2022/05/03 08:17:04;;;;;;;19.95;5.20;;;10.40;99.90;;;;;;5022649;28;20504;-49
2022/05/03 08:19:30;;;;;;;20.20;5.05;;;10.30;99.90;;;;;;5037839;28;20037;-52
2022/05/03 08:21:56;;;;;;;16.60;3.40;;;10.30;99.90;;;;;;5039447;28;20076;-52
2022/05/03 08:24:26;;;;;;;20.02;4.35;;;10.30;99.90;;;;;;5038266;28;20543;-52
2022/05/03 08:26:52;;;;;;;14.63;4.57;;;10.20;99.90;;;;;;5039196;28;20042;-50
2022/05/03 08:29:18;;;;;;;16.55;4.20;;;10.30;99.90;;;;;;5039789;28;20041;-51
2022/05/03 08:31:44;;;;;;;15.45;4.30;;;10.30;99.90;;;;;;5020464;28;20076;-52
2022/05/03 08:34:10;;;;;;;12.13;3.78;;;10.30;99.90;;;;;;5039718;28;20092;-53
2022/05/03 08:36:36;;;;;;;14.10;3.03;;;10.40;99.90;;;;;;5037855;28;20758;-51
2022/05/03 08:42:07;;;;;;;11.15;2.45;;;10.30;99.90;;;;;;5038959;28;20049;-51
2022/05/03 08:44:34;;;;;;;13.60;3.50;;;10.50;99.90;;;;;;5038115;28;20044;-52
2022/05/03 08:47:02;;;;;;;14.20;2.90;;;10.50;99.90;;;;;;5021896;28;20056;-52
2022/05/03 08:49:38;;;;;;;12.90;2.63;;;10.60;99.90;;;;;;5037771;28;20051;-53
2022/05/03 08:52:08;;;;;;;14.63;2.92;;;10.70;99.90;;;;;;5038061;28;20568;-55
2022/05/03 08:54:36;;;;;;;16.55;3.38;;;10.80;99.90;;;;;;5035103;28;20057;-51
2022/05/03 08:57:07;;;;;;;14.48;3.08;;;10.90;99.90;;;;;;5016335;28;20085;-53
2022/05/03 08:59:34;;;;;;;8.57;2.80;;;11.00;99.90;;;;;;5036509;28;20073;-52
2022/05/03 09:02:00;;;;;;;14.20;4.28;;;11.20;99.90;;;;;;5017601;28;20194;-53
2022/05/03 09:04:25;;;;;;;13.18;3.42;;;11.10;99.90;;;;;;5016546;28;20053;-51
2022/05/03 09:06:51;;;;;;;12.80;3.70;;;11.00;99.90;;;;;;5012182;28;20087;-50
2022/05/03 09:09:20;;;;;;;12.00;3.58;;;11.10;99.90;;;;;;5016181;28;20041;-52
2022/05/03 09:11:57;;;;;;;9.75;2.63;;;10.90;99.90;;;;;;5015675;28;20119;-51
2022/05/03 09:14:44;;;;;;;11.15;2.95;;;11.10;99.90;;;;;;5016461;28;20076;-52
2022/05/03 09:17:10;;;;;;;11.88;2.65;;;11.30;99.90;;;;;;5036325;28;20038;-50
2022/05/03 09:19:35;;;;;;;12.63;2.63;;;11.30;99.90;;;;;;5034120;28;20081;-51
2022/05/03 09:24:57;;;;;;;9.07;2.25;;;11.50;99.90;;;;;;5035362;28;20548;-52
2022/05/03 09:27:24;;;;;;;8.80;2.72;;;11.50;99.90;;;;;;5034588;28;20060;-52
2022/05/03 09:30:08;;;;;;;9.13;2.63;;;11.50;99.90;;;;;;5036126;28;20041;-50
2022/05/03 09:32:40;;;;;;;11.35;2.63;;;11.50;99.90;;;;;;5034102;28;20053;-52
2022/05/03 09:35:07;;;;;;;11.98;2.58;;;11.60;99.90;;;;;;5035738;28;20157;-52
2022/05/03 09:37:42;;;;;;;9.35;2.33;;;11.80;99.90;;;;;;5035294;28;20049;-50
2022/05/03 09:40:10;;;;;;;7.45;2.60;;;11.90;99.90;;;;;;5016334;28;20113;-51
2022/05/03 09:42:36;;;;;;;11.15;2.10;;;12.00;99.90;;;;;;5035873;28;20080;-52
2022/05/03 09:45:05;;;;;;;8.30;2.17;;;12.10;99.90;;;;;;5034075;28;20084;-52
2022/05/03 09:47:48;;;;;;;8.82;2.22;;;12.00;99.90;;;;;;5035751;28;20046;-51
2022/05/03 09:50:38;;;;;;;10.32;2.42;;;12.20;99.90;;;;;;5034611;28;20080;-51
2022/05/03 09:53:15;;;;;;;12.80;2.90;;;12.30;99.90;;;;;;5019921;28;20130;-52
2022/05/03 09:55:42;;;;;;;7.07;2.40;;;12.60;99.90;;;;;;5007825;28;20081;-52
2022/05/03 09:58:12;;;;;;;9.52;2.42;;;12.50;99.90;;;;;;5000992;28;20050;-52
2022/05/03 10:00:40;;;;;;;9.90;2.28;;;12.60;99.90;;;;;;5005267;28;20061;-53
2022/05/03 10:03:07;;;;;;;11.23;2.20;;;12.60;99.90;;;;;;5004234;28;20033;-51
2022/05/03 10:05:34;;;;;;;10.52;2.70;;;12.70;99.90;;;;;;4998308;28;20490;-52
2022/05/03 10:08:03;;;;;;;11.65;2.30;;;12.90;99.90;;;;;;4996002;28;20048;-51
2022/05/03 10:10:29;;;;;;;9.35;2.30;;;12.60;99.90;;;;;;4994398;28;20629;-52
2022/05/03 10:12:55;;;;;;;10.52;2.65;;;12.60;99.90;;;;;;4996395;28;20056;-52
2022/05/03 10:21:14;;;;;;;10.30;2.75;;;12.60;99.90;;;;;;5040691;28;20080;-51
2022/05/03 10:23:40;;;;;;;10.45;2.63;;;12.60;99.90;;;;;;5040647;28;20049;-53
2022/05/03 10:26:10;;;;;;;9.32;2.30;;;12.80;99.90;;;;;;5042181;28;20093;-51
2022/05/03 10:29:01;;;;;;;8.20;1.80;;;12.90;99.90;;;;;;5040771;28;20076;-52
2022/05/03 10:31:27;;;;;;;12.63;2.53;;;12.70;99.90;;;;;;5040923;28;20061;-51
2022/05/03 10:33:53;;;;;;;9.95;2.50;;;12.60;99.90;;;;;;5024673;28;20452;-53
2022/05/03 10:36:31;;;;;;;6.72;1.50;;;12.50;99.90;;;;;;5040435;28;20072;-52
2022/05/03 10:39:16;;;;;;;10.35;1.98;;;12.50;99.90;;;;;;5041903;28;20049;-52
2022/05/03 10:42:10;;;;;;;10.98;2.30;;;12.80;99.90;;;;;;5041092;28;20448;-51
2022/05/03 10:44:43;;;;;;;10.02;1.98;;;12.80;99.90;;;;;;5040259;28;20045;-53
2022/05/03 10:47:17;;;;;;;6.78;1.83;;;12.80;99.90;;;;;;5041927;28;20053;-51
2022/05/03 10:50:29;;;;;;;9.20;2.00;;;12.90;99.90;;;;;;5040159;28;20536;-54
2022/05/03 10:53:06;;;;;;;7.28;1.77;;;12.70;99.90;;;;;;4940447;29;20048;-52
2022/05/03 10:55:35;;;;;;;11.25;2.03;;;12.60;99.90;;;;;;4941948;29;20051;-52
2022/05/03 10:58:25;;;;;;;6.50;1.67;;;12.90;99.90;;;;;;5001880;28;20051;-52
2022/05/03 11:01:00;;;;;;;10.05;2.13;;;12.80;99.90;;;;;;5033446;28;20050;-53
2022/05/03 11:03:26;;;;;;;8.73;2.00;;;13.00;99.90;;;;;;5021404;28;20074;-53
2022/05/03 11:06:26;;;;;;;9.88;2.10;;;12.90;99.90;;;;;;5020210;28;20042;-52
2022/05/03 11:14:15;;;;;;;9.20;2.10;;;12.60;99.90;;;;;;5020662;28;20089;-50
2022/05/03 11:16:42;;;;;;;10.70;2.60;;;12.70;99.90;;;;;;5007366;28;20053;-53
2022/05/03 11:19:10;;;;;;;9.32;1.80;;;12.70;99.90;;;;;;5013713;28;20049;-51
2022/05/03 11:21:36;;;;;;;9.35;2.10;;;12.90;99.90;;;;;;5017879;28;20882;-54
2022/05/03 11:24:02;;;;;;;9.45;1.80;;;12.40;99.90;;;;;;5016285;28;20056;-52
2022/05/03 11:26:28;;;;;;;7.88;2.20;;;12.70;99.90;;;;;;5017742;28;20057;-54
2022/05/03 11:28:57;;;;;;;9.82;2.25;;;12.90;99.90;;;;;;5016181;28;20050;-51
2022/05/03 11:31:25;;;;;;;8.80;2.13;;;13.00;99.90;;;;;;5016912;28;20061;-53
2022/05/03 11:33:52;;;;;;;10.57;2.15;;;13.00;99.90;;;;;;5000600;28;20045;-53
2022/05/03 11:36:19;;;;;;;9.45;2.05;;;12.70;99.90;;;;;;5016273;28;20147;-53
2022/05/03 11:38:49;;;;;;;8.60;2.20;;;12.70;99.90;;;;;;5017687;28;20061;-52
2022/05/03 11:41:18;;;;;;;10.50;1.88;;;12.70;99.90;;;;;;5015963;28;20084;-51
2022/05/03 11:43:45;;;;;;;8.18;1.92;;;12.40;99.90;;;;;;5017116;28;20062;-53
2022/05/03 11:46:12;;;;;;;9.90;2.30;;;12.80;99.90;;;;;;4983959;28;20057;-52
2022/05/03 11:48:38;;;;;;;8.23;2.28;;;12.40;99.90;;;;;;4996760;28;20062;-54
2022/05/03 11:56:34;;;;;;;8.77;1.85;;;13.00;99.90;;;;;;4997727;28;20054;-53
2022/05/03 11:59:00;;;;;;;9.68;2.15;;;12.90;99.90;;;;;;4997340;28;20042;-52
2022/05/03 12:01:32;;;;;;;7.20;1.77;;;12.40;99.90;;;;;;4991367;28;20052;-54
2022/05/03 12:03:59;;;;;;;;;;;12.80;99.90;;;;;;5017868;28;20053;-54
2022/05/03 12:06:43;;;;;;;12.55;2.25;;;12.90;99.90;;;;;;5015564;28;19948;-54
2022/05/03 12:09:16;;;;;;;8.35;2.10;;;13.10;99.90;;;;;;5017052;28;20041;-50
2022/05/03 12:14:38;;;;;;;10.93;2.38;;;13.50;99.90;;;;;;5018933;28;20128;-54
2022/05/03 12:17:04;;;;;;;10.43;2.15;;;12.90;99.90;;;;;;5009634;28;20065;-53
2022/05/03 12:19:37;;;;;;;7.25;1.92;;;12.80;99.90;;;;;;5007707;28;20065;-53
2022/05/03 12:22:14;;;;;;;7.35;2.00;;;13.20;99.90;;;;;;5004452;28;20042;-54
2022/05/03 12:24:41;;;;;;;9.27;1.95;;;13.10;99.90;;;;;;5004574;28;20046;-53
2022/05/03 12:27:12;;;;;;;8.10;1.90;;;13.10;99.90;;;;;;4995949;28;20038;-54
2022/05/03 12:29:48;;;;;;;10.40;2.40;;;13.00;99.90;;;;;;4979446;28;20157;-53
2022/05/03 12:32:16;;;;;;;7.28;2.10;;;13.50;99.90;;;;;;4995718;28;20046;-52
2022/05/03 12:34:57;;;;;;;9.93;2.05;;;13.10;99.90;;;;;;4998914;28;20046;-54
2022/05/03 12:37:24;;;;;;;8.05;2.15;;;13.00;99.90;;;;;;5013660;28;20046;-54
2022/05/03 12:39:50;;;;;;;11.90;2.53;;;13.00;99.90;;;;;;5014640;28;20050;-53
2022/05/03 12:42:15;;;;;;;7.90;2.30;;;13.00;99.90;;;;;;5016518;28;20053;-53
2022/05/03 12:44:52;;;;;;;8.80;2.17;;;12.90;99.90;;;;;;5014910;28;20105;-53
2022/05/03 12:47:19;;;;;;;8.23;2.75;;;13.20;99.90;;;;;;5016514;28;20045;-54
2022/05/03 12:49:45;;;;;;;9.00;2.40;;;13.10;99.90;;;;;;5014970;28;20042;-54
2022/05/03 12:52:11;;;;;;;11.77;2.20;;;12.80;99.90;;;;;;5015928;28;20050;-50
2022/05/03 12:54:44;;;;;;;8.73;1.88;;;13.10;99.90;;;;;;5015836;28;20166;-54
2022/05/03 12:59:56;;;;;;;9.70;1.95;;;13.20;99.90;;;;;;4996488;28;20073;-53
2022/05/03 13:02:23;;;;;;;9.15;2.17;;;13.30;99.90;;;;;;4958594;28;20050;-52
2022/05/03 13:04:49;;;;;;;10.18;2.38;;;13.10;99.90;;;;;;4976321;28;20051;-52
2022/05/03 13:07:15;;;;;;;9.80;2.10;;;12.80;99.90;;;;;;4975706;28;20134;-52
2022/05/03 13:09:41;;;;;;;8.85;2.40;;;12.90;99.90;;;;;;4958608;28;20066;-52
2022/05/03 13:12:07;;;;;;;8.55;2.13;;;13.30;99.90;;;;;;4977473;28;20098;-51
2022/05/03 13:14:34;;;;;;;8.65;2.22;;;13.30;99.90;;;;;;4981407;28;20045;-50
2022/05/03 13:16:59;;;;;;;7.63;2.20;;;13.00;99.90;;;;;;5015681;28;20046;-53
2022/05/03 13:19:27;;;;;;;9.32;1.90;;;13.50;99.90;;;;;;4996433;28;20076;-53
2022/05/03 13:21:54;;;;;;;9.52;2.05;;;13.60;99.90;;;;;;5015322;28;20046;-52
2022/05/03 13:24:21;;;;;;;7.03;1.83;;;13.30;99.90;;;;;;5014891;28;20064;-51
2022/05/03 13:26:47;;;;;;;6.93;2.38;;;12.90;99.90;;;;;;5014999;28;20068;-53
2022/05/03 13:29:18;;;;;;;11.13;2.60;;;12.70;99.90;;;;;;5015052;28;20081;-53
2022/05/03 13:31:44;;;;;;;13.90;2.50;;;13.20;99.90;;;;;;5014179;28;20064;-52
2022/05/03 13:34:10;;;;;;;8.13;1.98;;;13.40;99.90;;;;;;5015962;28;20054;-53
2022/05/03 13:42:06;;;;;;;9.95;2.38;;;13.20;99.90;;;;;;5017264;28;20034;-52
2022/05/03 13:44:36;;;;;;;13.43;2.30;;;13.40;99.90;;;;;;5016942;28;20096;-52
2022/05/03 13:47:04;;;;;;;9.35;2.42;;;13.10;99.90;;;;;;5001541;28;20034;-52
2022/05/03 13:49:30;;;;;;;11.90;2.42;;;13.00;99.90;;;;;;5017338;28;20056;-53
2022/05/03 13:51:55;;;;;;;8.02;1.90;;;12.80;99.90;;;;;;5019865;28;20092;-51